Airfield :
LOGIN :

Register | Disclaimer

   EN    FR    IT 

 










Legend :    VFR   Marginal VFR   IFR   Intensive IFR   Very Intensive IFR
Visi :
Ceiling :
>= 8 km
>= 3000ft
5 to 8 km
1000 to 3000 ft
1500m to 5 km
500 to 1000 ft
800 to 1500m
200 to 500 ft
< 800m
< 200 ft
Symbols :   Thunderstorms  Fog  Heavy snow  Heavy precipitations  Wind > 20 kt
SIGMETs :     Misc.  Thunderstorms  Icing  Turbulence  Mountain Waves  Volcanic Ashes







- Airport Elevation : 154 ft
- IATA code : SZZ


EPSC - Szczecin Goleniow

EXPIRED METARs :
  • 181930Z 15002KT 6000 MIFG FEW031 18/18 Q1006
  • 181900Z 18003KT 110V210 9999 FEW033 19/19 Q1005
  • 181830Z 20004KT 160V230 9999 FEW034 20/18 Q1005
  • 181800Z 18005KT 150V210 9999 FEW005 20/18 Q1005
  • 181730Z 14008KT 7000 -SHRA FEW001 SCT048CB 20/18 Q1005
  • 181700Z 17006KT 140V200 CAVOK 21/17 Q1006

TAF TAF EPSC
Valid from the 18 at 18:00 until the 19 at 18:00 UTC


181730Z 1818/1918 18010KT 9999 SCT025
TEMPO 1818/1822 SHRA BKN005 BKN020CB
PROB30
TEMPO 1818/1821 4000 TSRA
BECMG 1820/1822 27005KT
PROB40 1822/1905 BKN005
TEMPO 1909/1916 SCT030TCU
No reported NOTAMs for that airfield.



MET'MAP, your aeronautical weather chart ! - Copyright ORBIFLY December 2007 - Disclaimer

ORBIFLY MET'MAP TEAM :

Programming & Development : Alexandra Zaïnal
Concept & Development : Baudouin d'Aumeries
Co-Development & Prog : Marc-Olivier Méhu
Technical & hardware support : Manuel Goepfert

Contact : metmap@orbifly.com




SOURCES & CREDITS :

   NOAA